createdAt,value
2022-11-16T00:02:24.218Z,162.20
2022-11-16T00:05:28.536Z,146.40
2022-11-16T00:08:31.666Z,155.47
2022-11-16T00:11:33.837Z,140.95
2022-11-16T00:14:36.073Z,147.10
2022-11-16T00:17:38.036Z,154.85
2022-11-16T00:20:40.008Z,156.93
2022-11-16T00:23:41.946Z,151.90
2022-11-16T00:26:43.925Z,187.05
2022-11-16T00:29:45.936Z,160.23
2022-11-16T00:32:47.865Z,167.65
2022-11-16T00:35:49.932Z,168.70
2022-11-16T00:38:53.837Z,161.60
2022-11-16T00:41:55.811Z,174.05
2022-11-16T00:44:57.780Z,180.65
2022-11-16T00:48:00.735Z,176.73
2022-11-16T00:51:03.918Z,172.25
2022-11-16T00:54:06.885Z,140.02
2022-11-16T00:57:10.556Z,154.05
2022-11-16T01:00:13.220Z,160.40
2022-11-16T01:03:15.389Z,135.30
2022-11-16T01:06:17.634Z,145.40
2022-11-16T01:09:19.578Z,140.83
2022-11-16T01:12:22.979Z,144.63
2022-11-16T01:15:26.220Z,154.02
2022-11-16T01:18:28.167Z,149.32
2022-11-16T01:21:30.208Z,159.23
2022-11-16T01:24:32.276Z,165.10
2022-11-16T01:27:34.248Z,166.52
2022-11-16T01:30:38.983Z,175.20
2022-11-16T01:33:44.595Z,165.27
2022-11-16T01:36:55.402Z,180.40
2022-11-16T01:39:58.525Z,158.03
2022-11-16T01:43:01.663Z,151.02
2022-11-16T01:46:04.687Z,159.73
2022-11-16T01:49:10.653Z,170.27
2022-11-16T01:52:16.773Z,153.48
2022-11-16T01:55:18.784Z,166.15
2022-11-16T01:58:41.124Z,161.30
2022-11-16T02:01:59.706Z,170.87
2022-11-16T02:05:02.846Z,180.63
2022-11-16T02:08:39.244Z,175.15
2022-11-16T02:11:43.684Z,223.20
2022-11-16T02:14:51.886Z,197.40
2022-11-16T02:17:59.106Z,209.73
2022-11-16T02:21:20.444Z,211.65
2022-11-16T02:24:25.557Z,224.98
2022-11-16T02:28:06.082Z,254.48
2022-11-16T02:31:11.468Z,204.38
2022-11-16T02:34:16.714Z,248.40
2022-11-16T02:37:20.737Z,202.85
2022-11-16T02:40:24.021Z,183.07
2022-11-16T02:43:29.773Z,190.13
2022-11-16T02:46:36.154Z,182.48
2022-11-16T02:49:42.273Z,185.98
2022-11-16T02:52:44.236Z,190.70
2022-11-16T02:55:46.255Z,174.25
2022-11-16T02:58:48.326Z,190.50
2022-11-16T03:01:57.367Z,210.05
2022-11-16T03:04:59.675Z,246.50
2022-11-16T03:08:07.908Z,217.93
2022-11-16T03:11:29.029Z,180.10
2022-11-16T03:14:57.090Z,169.37
2022-11-16T03:18:00.195Z,186.43
2022-11-16T03:21:06.322Z,176.02
2022-11-16T03:24:08.734Z,201.18
2022-11-16T03:27:11.684Z,215.63
2022-11-16T03:30:23.360Z,181.52
2022-11-16T03:33:34.168Z,163.52
2022-11-16T03:36:38.803Z,181.07
2022-11-16T03:39:42.145Z,192.75
2022-11-16T03:42:45.447Z,220.30
2022-11-16T03:45:48.071Z,225.03
2022-11-16T03:48:55.605Z,192.27
2022-11-16T03:52:00.151Z,183.95
2022-11-16T03:55:04.825Z,216.40
2022-11-16T03:58:06.910Z,180.60
2022-11-16T04:01:09.068Z,249.63
2022-11-16T04:04:31.113Z,207.88
2022-11-16T04:07:51.915Z,179.57
2022-11-16T04:11:12.642Z,226.38
2022-11-16T04:14:36.188Z,223.65
2022-11-16T04:17:57.491Z,220.37
2022-11-16T04:21:19.198Z,206.00
2022-11-16T04:24:25.992Z,214.13
2022-11-16T04:27:47.559Z,222.60
2022-11-16T04:31:10.546Z,232.80
2022-11-16T04:34:33.584Z,203.48
2022-11-16T04:37:52.463Z,226.30
2022-11-16T04:41:04.757Z,268.63
2022-11-16T04:44:08.118Z,222.98
2022-11-16T04:47:11.846Z,253.10
2022-11-16T04:50:14.452Z,291.70
2022-11-16T04:53:17.369Z,246.27
2022-11-16T04:56:27.669Z,239.35
2022-11-16T04:59:30.081Z,272.13
2022-11-16T05:02:32.492Z,299.60
2022-11-16T05:05:34.956Z,241.60
2022-11-16T05:08:37.227Z,290.73
2022-11-16T05:11:40.328Z,297.37
2022-11-16T05:14:43.439Z,314.25
2022-11-16T05:17:46.313Z,294.83
2022-11-16T05:21:01.420Z,208.40
2022-11-16T05:24:27.393Z,313.65
2022-11-16T05:27:30.416Z,337.50
2022-11-16T05:30:33.059Z,243.80
2022-11-16T05:33:36.812Z,291.45
2022-11-16T05:36:39.098Z,332.80
2022-11-16T05:39:41.779Z,358.92
2022-11-16T05:42:44.388Z,412.10
2022-11-16T05:45:46.657Z,341.65
2022-11-16T05:48:50.253Z,383.85
2022-11-16T05:51:52.651Z,379.20
2022-11-16T05:54:56.702Z,410.58
2022-11-16T05:57:58.905Z,433.30
2022-11-16T06:01:00.931Z,451.00
2022-11-16T06:04:03.070Z,333.42
2022-11-16T06:07:07.278Z,387.17
2022-11-16T06:10:10.948Z,348.45
2022-11-16T06:13:14.212Z,453.70
2022-11-16T06:16:16.699Z,397.58
2022-11-16T06:19:18.668Z,370.65
2022-11-16T06:22:20.717Z,355.47
2022-11-16T06:25:23.825Z,409.00
2022-11-16T06:28:26.292Z,385.88
2022-11-16T06:31:29.910Z,409.65
2022-11-16T06:34:35.125Z,391.35
2022-11-16T06:37:37.714Z,348.67
2022-11-16T06:40:39.924Z,288.98
2022-11-16T06:43:42.141Z,401.90
2022-11-16T06:46:44.194Z,344.40
2022-11-16T06:49:47.191Z,356.50
2022-11-16T06:52:56.125Z,286.33
2022-11-16T06:56:05.659Z,382.65
2022-11-16T06:59:13.391Z,307.33
2022-11-16T07:02:16.116Z,341.15
2022-11-16T07:05:19.698Z,271.05
2022-11-16T07:08:22.566Z,262.75
2022-11-16T07:11:24.983Z,306.02
2022-11-16T07:14:27.765Z,336.67
2022-11-16T07:17:29.775Z,283.17
2022-11-16T07:20:33.549Z,366.27
2022-11-16T07:23:35.917Z,357.43
2022-11-16T07:26:38.074Z,377.13
2022-11-16T07:29:47.757Z,373.45
2022-11-16T07:33:12.560Z,340.52
2022-11-16T07:36:43.591Z,276.20
2022-11-16T07:39:46.414Z,324.58
2022-11-16T07:42:49.533Z,246.98
2022-11-16T07:49:34.401Z,216.90
2022-11-16T07:52:49.574Z,205.60
2022-11-16T07:55:55.727Z,184.70
2022-11-16T07:58:59.611Z,188.37
2022-11-16T08:02:03.983Z,175.20
2022-11-16T08:05:07.377Z,174.25
2022-11-16T08:08:11.290Z,157.00
2022-11-16T08:11:13.567Z,167.00
2022-11-16T08:14:18.644Z,164.23
2022-11-16T08:17:23.012Z,161.13
2022-11-16T08:20:25.117Z,151.77
2022-11-16T08:23:27.968Z,128.70
2022-11-16T08:26:30.423Z,152.63
2022-11-16T08:29:38.336Z,148.60
2022-11-16T08:32:43.506Z,143.55
2022-11-16T08:35:48.263Z,144.30
2022-11-16T08:38:51.291Z,149.30
2022-11-16T08:41:55.160Z,144.63
2022-11-16T08:44:57.643Z,143.73
2022-11-16T08:48:04.495Z,142.05
2022-11-16T08:51:19.741Z,141.83
2022-11-16T08:54:31.142Z,136.75
2022-11-16T08:57:33.518Z,149.57
2022-11-16T09:00:40.203Z,141.23
2022-11-16T09:03:42.541Z,137.23
2022-11-16T09:06:44.806Z,130.60
2022-11-16T09:09:46.870Z,118.32
2022-11-16T09:12:49.675Z,118.47
2022-11-16T09:16:01.301Z,118.75
2022-11-16T09:19:03.329Z,121.30
2022-11-16T09:22:05.583Z,109.97
2022-11-16T09:25:08.079Z,115.25
2022-11-16T09:28:11.319Z,101.45
2022-11-16T09:31:16.506Z,108.78
2022-11-16T09:34:23.368Z,107.63
2022-11-16T09:37:25.536Z,108.47
2022-11-16T09:40:31.489Z,112.95
2022-11-16T09:43:55.861Z,107.97
2022-11-16T09:46:59.044Z,104.03
2022-11-16T09:50:04.063Z,102.75
2022-11-16T09:53:12.424Z,98.47
2022-11-16T09:56:22.513Z,91.93
2022-11-16T09:59:25.710Z,95.20
2022-11-16T10:02:36.629Z,93.82
2022-11-16T10:05:38.722Z,97.05
2022-11-16T10:08:41.402Z,98.78
2022-11-16T10:11:43.694Z,90.97
2022-11-16T10:14:57.562Z,97.97
2022-11-16T10:18:22.906Z,95.00
2022-11-16T10:21:31.106Z,87.60
2022-11-16T10:24:42.687Z,90.60
2022-11-16T10:27:47.406Z,87.15
2022-11-16T10:31:15.461Z,81.55
2022-11-16T10:34:23.783Z,79.05
2022-11-16T10:37:31.026Z,87.38
2022-11-16T10:40:37.038Z,93.57
2022-11-16T10:43:40.606Z,92.32
2022-11-16T10:46:45.736Z,86.57
2022-11-16T10:49:50.596Z,89.47
2022-11-16T10:52:52.693Z,91.47
2022-11-16T10:56:01.288Z,87.28
2022-11-16T10:59:03.314Z,85.50
2022-11-16T11:02:23.915Z,95.80
2022-11-16T11:05:27.042Z,85.90
2022-11-16T11:08:33.434Z,84.97
2022-11-16T11:11:53.951Z,88.80
2022-11-16T11:14:58.889Z,84.00
2022-11-16T11:18:13.171Z,89.63
2022-11-16T11:21:19.392Z,88.60
2022-11-16T11:27:43.472Z,80.53
2022-11-16T11:31:14.807Z,79.77
2022-11-16T11:34:27.662Z,81.05
2022-11-16T11:37:34.706Z,76.45
2022-11-16T11:40:36.831Z,85.43
2022-11-16T11:43:38.946Z,84.73
2022-11-16T11:50:18.828Z,85.32
2022-11-16T11:53:23.877Z,83.50
2022-11-16T11:56:27.077Z,82.05
2022-11-16T11:59:29.907Z,85.88
2022-11-16T12:02:44.750Z,85.72
2022-11-16T12:05:47.012Z,95.93
2022-11-16T12:09:21.499Z,86.23
2022-11-16T12:12:46.514Z,78.53
2022-11-16T12:16:06.992Z,91.93
2022-11-16T12:19:09.440Z,86.83
2022-11-16T12:22:30.391Z,88.47
2022-11-16T12:25:44.400Z,107.40
2022-11-16T12:28:59.041Z,91.57
2022-11-16T12:32:16.480Z,97.40
2022-11-16T12:35:40.837Z,93.75
2022-11-16T12:39:03.052Z,81.15
2022-11-16T12:42:14.875Z,91.80
2022-11-16T12:45:27.650Z,114.80
2022-11-16T12:48:38.854Z,107.43
2022-11-16T12:51:40.878Z,98.55
2022-11-16T12:55:24.050Z,111.07
2022-11-16T12:58:25.974Z,100.70
2022-11-16T13:01:37.021Z,97.53
2022-11-16T13:04:41.603Z,103.18
2022-11-16T13:08:04.132Z,98.85
2022-11-16T13:11:38.440Z,110.30
2022-11-16T13:14:43.525Z,112.47
2022-11-16T13:17:57.063Z,109.70
2022-11-16T13:20:59.032Z,118.00
2022-11-16T13:24:10.149Z,119.50
2022-11-16T13:27:18.043Z,114.45
2022-11-16T13:30:21.569Z,123.22
2022-11-16T13:33:26.143Z,115.15
2022-11-16T13:36:55.075Z,108.03
2022-11-16T13:39:57.194Z,110.38
2022-11-16T13:42:59.213Z,107.40
2022-11-16T13:46:01.284Z,111.53
2022-11-16T13:49:03.365Z,123.43
2022-11-16T13:52:22.650Z,108.45
2022-11-16T13:55:30.507Z,117.80
2022-11-16T13:58:34.017Z,123.07
2022-11-16T14:01:56.658Z,124.95
2022-11-16T14:05:00.318Z,110.00
2022-11-16T14:08:20.613Z,116.82
2022-11-16T14:11:28.608Z,110.27
2022-11-16T14:14:49.315Z,106.20
2022-11-16T14:17:59.715Z,104.55
2022-11-16T14:21:07.204Z,114.03
2022-11-16T14:24:24.353Z,126.03
2022-11-16T14:27:42.028Z,103.82
2022-11-16T14:30:54.804Z,109.55
2022-11-16T14:33:58.731Z,102.10
2022-11-16T14:37:00.777Z,115.43
2022-11-16T14:40:06.140Z,112.90
2022-11-16T14:43:17.029Z,116.30
2022-11-16T14:46:26.123Z,129.20
2022-11-16T14:49:28.751Z,120.65
2022-11-16T14:52:39.832Z,120.55
2022-11-16T14:55:42.908Z,126.75
2022-11-16T14:59:11.099Z,137.30
2022-11-16T15:02:22.523Z,113.45
2022-11-16T15:05:28.310Z,107.85
2022-11-16T15:08:32.663Z,114.27
2022-11-16T15:11:57.676Z,122.68
2022-11-16T15:15:03.067Z,128.43
2022-11-16T15:18:18.666Z,126.22
2022-11-16T15:21:22.316Z,127.50
2022-11-16T15:24:34.616Z,115.63
2022-11-16T15:27:38.152Z,137.82
2022-11-16T15:30:40.540Z,127.47
2022-11-16T15:33:43.205Z,125.63
2022-11-16T15:36:45.905Z,116.75
2022-11-16T15:39:47.961Z,118.65
2022-11-16T15:42:51.427Z,125.17
2022-11-16T15:45:54.014Z,115.07
2022-11-16T15:48:56.338Z,106.82
2022-11-16T15:51:58.804Z,111.43
2022-11-16T15:55:06.513Z,106.90
2022-11-16T15:58:14.787Z,85.75
2022-11-16T16:01:17.229Z,102.88
2022-11-16T16:04:19.359Z,102.05
2022-11-16T16:07:40.497Z,109.80
2022-11-16T16:10:42.807Z,105.72
2022-11-16T16:13:56.161Z,114.85
2022-11-16T16:16:59.132Z,124.55
2022-11-16T16:20:02.746Z,102.50
2022-11-16T16:23:24.891Z,107.75
2022-11-16T16:26:26.852Z,103.45
2022-11-16T16:29:28.796Z,111.65
2022-11-16T16:32:31.768Z,104.97
2022-11-16T16:35:33.780Z,110.32
2022-11-16T16:38:35.771Z,96.20
2022-11-16T16:41:39.144Z,109.95
2022-11-16T16:44:41.718Z,94.37
2022-11-16T16:47:43.687Z,93.20
2022-11-16T16:50:45.655Z,95.00
2022-11-16T16:53:47.600Z,93.03
2022-11-16T16:56:49.571Z,87.97
2022-11-16T16:59:51.558Z,115.72
2022-11-16T17:02:53.755Z,109.53
2022-11-16T17:05:59.432Z,107.87
2022-11-16T17:09:01.448Z,104.05
2022-11-16T17:12:03.445Z,97.68
2022-11-16T17:15:05.572Z,89.68
2022-11-16T17:18:07.600Z,80.03
2022-11-16T17:21:09.629Z,90.85
2022-11-16T17:24:11.809Z,89.03
2022-11-16T17:27:13.884Z,82.30
2022-11-16T17:30:16.118Z,78.88
2022-11-16T17:33:18.090Z,77.80
2022-11-16T17:36:20.204Z,79.82
2022-11-16T17:39:22.743Z,78.63
2022-11-16T17:42:24.783Z,70.97
2022-11-16T17:45:27.546Z,68.25
2022-11-16T17:48:29.600Z,66.90
2022-11-16T17:51:31.690Z,68.22
2022-11-16T17:54:33.700Z,63.75
2022-11-16T17:57:35.671Z,55.83
2022-11-16T18:00:37.700Z,52.00
2022-11-16T18:03:40.195Z,53.13
2022-11-16T18:06:42.209Z,50.00
2022-11-16T18:09:44.147Z,51.05
2022-11-16T18:12:46.184Z,47.42
2022-11-16T18:15:48.488Z,46.17
2022-11-16T18:18:55.966Z,41.77
2022-11-16T18:21:57.970Z,45.00
2022-11-16T18:25:00.051Z,49.03
2022-11-16T18:28:02.016Z,51.03
2022-11-16T18:31:05.049Z,47.72
2022-11-16T18:34:07.037Z,46.30
2022-11-16T18:37:09.289Z,43.75
2022-11-16T18:40:12.190Z,39.58
2022-11-16T18:43:14.216Z,42.63
2022-11-16T18:46:16.808Z,43.80
2022-11-16T18:49:18.845Z,38.93
2022-11-16T18:52:20.830Z,35.30
2022-11-16T18:55:22.995Z,43.60
2022-11-16T18:58:49.406Z,43.57
2022-11-16T19:01:47.904Z,45.58
2022-11-16T19:04:49.852Z,42.85
2022-11-16T19:07:51.809Z,42.50
2022-11-16T19:10:54.251Z,37.73
2022-11-16T19:13:57.878Z,44.58
2022-11-16T19:17:00.921Z,46.45
2022-11-16T19:20:02.968Z,41.97
2022-11-16T19:23:04.990Z,37.65
2022-11-16T19:26:07.195Z,42.90
2022-11-16T19:29:09.199Z,51.03
2022-11-16T19:32:11.183Z,51.35
2022-11-16T19:35:16.019Z,44.47
2022-11-16T19:38:17.969Z,44.97
2022-11-16T19:41:22.308Z,47.60
2022-11-16T19:44:24.283Z,42.13
2022-11-16T19:47:26.438Z,39.20
2022-11-16T19:50:28.430Z,42.00
2022-11-16T19:53:30.374Z,38.67
2022-11-16T19:56:32.393Z,34.58
2022-11-16T19:59:34.334Z,37.25
2022-11-16T20:02:36.608Z,29.70
2022-11-16T20:05:38.538Z,31.73
2022-11-16T20:08:41.835Z,29.88
2022-11-16T20:11:43.901Z,31.00
2022-11-16T20:14:45.892Z,25.00
2022-11-16T20:17:47.846Z,32.30
2022-11-16T20:20:49.832Z,35.20
2022-11-16T20:23:52.338Z,31.27
2022-11-16T20:26:54.289Z,35.88
2022-11-16T20:29:56.302Z,37.55
2022-11-16T20:32:58.522Z,32.70
2022-11-16T20:36:01.744Z,37.25
2022-11-16T20:39:03.739Z,40.42
2022-11-16T20:42:05.701Z,40.57
2022-11-16T20:45:08.122Z,32.22
2022-11-16T20:48:10.087Z,39.63
2022-11-16T20:51:13.571Z,42.67
2022-11-16T20:54:15.538Z,41.85
2022-11-16T20:57:17.499Z,43.22
2022-11-16T21:00:19.471Z,40.92
2022-11-16T21:03:21.431Z,40.47
2022-11-16T21:06:23.406Z,49.30
2022-11-16T21:09:25.859Z,42.33
2022-11-16T21:12:46.452Z,42.73
2022-11-16T21:16:01.777Z,51.10
2022-11-16T21:19:03.964Z,49.97
2022-11-16T21:22:05.908Z,47.03
2022-11-16T21:25:08.068Z,53.72
2022-11-16T21:28:10.027Z,53.78
2022-11-16T21:31:15.530Z,62.35
2022-11-16T21:34:18.767Z,53.23
2022-11-16T21:37:20.725Z,55.00
2022-11-16T21:40:22.668Z,39.38
2022-11-16T21:43:24.636Z,61.17
2022-11-16T21:46:26.906Z,59.50
2022-11-16T21:49:28.860Z,57.95
2022-11-16T21:52:30.840Z,61.05
2022-11-16T21:55:33.377Z,56.10
2022-11-16T21:58:35.296Z,61.78
2022-11-16T22:01:57.304Z,72.15
2022-11-16T22:05:17.817Z,68.03
2022-11-16T22:08:19.785Z,79.25
2022-11-16T22:11:22.322Z,73.35
2022-11-16T22:14:24.425Z,77.27
2022-11-16T22:17:26.751Z,78.78
2022-11-16T22:20:28.708Z,79.60
2022-11-16T22:23:31.213Z,53.30
2022-11-16T22:26:33.253Z,76.18
2022-11-16T22:29:35.256Z,79.28
2022-11-16T22:32:37.281Z,79.80
2022-11-16T22:35:39.236Z,78.27
2022-11-16T22:38:41.220Z,68.95
2022-11-16T22:41:43.217Z,76.28
2022-11-16T22:44:45.177Z,89.60
2022-11-16T22:47:49.678Z,89.15
2022-11-16T22:51:01.496Z,83.15
2022-11-16T22:54:04.506Z,85.88
2022-11-16T22:57:06.476Z,90.28
2022-11-16T23:00:10.036Z,99.40
2022-11-16T23:03:12.039Z,96.97
2022-11-16T23:06:14.162Z,89.00
2022-11-16T23:09:16.111Z,101.65
2022-11-16T23:12:47.191Z,101.25
2022-11-16T23:15:49.141Z,102.10
2022-11-16T23:18:51.132Z,102.28
2022-11-16T23:22:28.573Z,99.93
2022-11-16T23:25:49.137Z,110.20
2022-11-16T23:28:51.272Z,96.95
2022-11-16T23:31:53.245Z,96.72
2022-11-16T23:34:55.227Z,96.10
2022-11-16T23:37:57.153Z,99.60
2022-11-16T23:41:19.035Z,100.20
2022-11-16T23:44:21.032Z,105.43
2022-11-16T23:47:23.051Z,91.37
2022-11-16T23:50:25.044Z,87.55
2022-11-16T23:53:27.022Z,80.60
2022-11-16T23:56:29.182Z,92.85
2022-11-16T23:59:31.208Z,92.13
